createdAt,value
2022-08-09T00:05:03.654Z,2.57
2022-08-09T00:10:18.040Z,1.80
2022-08-09T00:15:26.504Z,1.75
2022-08-09T00:20:50.216Z,1.80
2022-08-09T00:25:52.052Z,2.50
2022-08-09T00:30:53.365Z,1.65
2022-08-09T00:35:55.852Z,1.57
2022-08-09T00:40:58.092Z,1.70
2022-08-09T00:45:59.703Z,1.60
2022-08-09T00:51:03.226Z,1.93
2022-08-09T00:56:14.144Z,1.80
2022-08-09T01:01:18.868Z,1.98
2022-08-09T01:06:53.205Z,1.98
2022-08-09T01:12:23.694Z,1.80
2022-08-09T01:17:38.858Z,2.00
2022-08-09T01:22:40.097Z,1.83
2022-08-09T01:27:42.259Z,1.70
2022-08-09T01:32:46.161Z,1.83
2022-08-09T01:38:08.023Z,1.85
2022-08-09T01:43:11.236Z,1.90
2022-08-09T01:48:15.606Z,2.00
2022-08-09T01:53:19.563Z,2.00
2022-08-09T01:58:24.109Z,2.45
2022-08-09T02:03:28.821Z,2.00
2022-08-09T02:08:38.438Z,1.95
2022-08-09T02:13:55.342Z,1.80
2022-08-09T02:19:08.813Z,1.87
2022-08-09T02:24:26.149Z,2.00
2022-08-09T02:29:31.303Z,1.90
2022-08-09T02:34:40.802Z,2.10
2022-08-09T02:39:55.372Z,2.03
2022-08-09T02:45:26.615Z,1.88
2022-08-09T02:50:33.103Z,1.80
2022-08-09T02:55:57.358Z,2.00
2022-08-09T03:00:59.095Z,2.00
2022-08-09T03:06:07.157Z,2.15
2022-08-09T03:12:06.693Z,2.00
2022-08-09T03:16:45.383Z,2.25
2022-08-09T03:21:51.139Z,2.20
2022-08-09T03:26:53.506Z,2.30
2022-08-09T03:32:00.346Z,2.20
2022-08-09T03:37:10.726Z,2.40
2022-08-09T03:42:28.872Z,2.47
2022-08-09T03:47:32.022Z,2.53
2022-08-09T03:52:42.478Z,2.30
2022-08-09T03:57:53.668Z,2.20
2022-08-09T04:03:06.806Z,2.30
2022-08-09T04:08:08.133Z,2.30
2022-08-09T04:13:11.505Z,2.45
2022-08-09T04:18:16.745Z,2.30
2022-08-09T04:23:24.509Z,2.40
2022-08-09T04:28:32.972Z,2.10
2022-08-09T04:33:52.204Z,2.28
2022-08-09T04:38:55.917Z,2.00
2022-08-09T04:44:06.641Z,2.40
2022-08-09T04:49:10.638Z,2.58
2022-08-09T04:54:16.121Z,2.17
2022-08-09T04:59:17.408Z,2.50
2022-08-09T05:04:22.457Z,2.08
2022-08-09T05:09:42.132Z,3.30
2022-08-09T05:14:46.866Z,2.77
2022-08-09T05:19:48.972Z,3.00
2022-08-09T05:25:01.117Z,2.40
2022-08-09T05:30:04.442Z,2.47
2022-08-09T05:35:08.512Z,2.88
2022-08-09T05:40:10.800Z,2.42
2022-08-09T05:45:14.489Z,2.60
2022-08-09T05:50:26.838Z,2.90
2022-08-09T05:55:36.834Z,2.50
2022-08-09T06:00:38.560Z,2.80
2022-08-09T06:05:57.818Z,2.90
2022-08-09T06:11:01.223Z,2.40
2022-08-09T06:16:04.937Z,2.60
2022-08-09T06:21:06.822Z,3.10
2022-08-09T06:26:10.770Z,2.70
2022-08-09T06:31:12.233Z,2.28
2022-08-09T06:36:14.024Z,2.50
2022-08-09T06:41:19.173Z,2.33
2022-08-09T06:46:40.383Z,2.50
2022-08-09T06:51:42.631Z,2.77
2022-08-09T06:56:46.251Z,2.10
2022-08-09T07:01:59.591Z,2.10
2022-08-09T07:07:05.275Z,2.10
2022-08-09T07:12:06.687Z,2.10
2022-08-09T07:17:14.990Z,2.20
2022-08-09T07:22:16.944Z,2.42
2022-08-09T07:27:26.176Z,2.67
2022-08-09T07:32:35.231Z,2.67
2022-08-09T07:37:44.031Z,2.78
2022-08-09T07:42:54.395Z,2.40
2022-08-09T07:48:01.502Z,2.80
2022-08-09T07:53:06.633Z,2.83
2022-08-09T07:58:13.198Z,3.08
2022-08-09T08:03:18.248Z,2.90
2022-08-09T08:09:02.259Z,2.80
2022-08-09T08:13:57.330Z,3.00
2022-08-09T08:19:02.548Z,2.93
2022-08-09T08:24:12.092Z,3.30
2022-08-09T08:29:20.057Z,3.22
2022-08-09T08:34:28.953Z,3.20
2022-08-09T08:39:38.222Z,3.27
2022-08-09T08:44:44.868Z,3.20
2022-08-09T08:49:49.429Z,3.22
2022-08-09T08:54:50.898Z,2.63
2022-08-09T08:59:53.930Z,3.00
2022-08-09T09:05:02.897Z,3.30
2022-08-09T09:10:09.358Z,3.27
2022-08-09T09:15:12.224Z,3.22
2022-08-09T09:20:34.717Z,3.08
2022-08-09T09:26:04.736Z,3.20
2022-08-09T09:31:02.395Z,3.13
2022-08-09T09:36:20.022Z,3.00
2022-08-09T09:41:32.655Z,2.80
2022-08-09T09:46:42.297Z,2.90
2022-08-09T09:51:47.743Z,2.67
2022-08-09T09:56:53.427Z,2.47
2022-08-09T10:02:14.703Z,2.70
2022-08-09T10:07:26.211Z,2.40
2022-08-09T10:12:28.462Z,2.75
2022-08-09T10:17:50.322Z,2.80
2022-08-09T10:23:00.383Z,2.60
2022-08-09T10:28:02.349Z,2.60
2022-08-09T10:33:04.239Z,3.13
2022-08-09T10:38:34.071Z,2.50
2022-08-09T10:43:36.057Z,2.72
2022-08-09T10:49:07.476Z,2.35
2022-08-09T10:54:13.701Z,2.83
2022-08-09T10:59:31.286Z,2.63
2022-08-09T11:04:33.716Z,2.55
2022-08-09T11:09:47.462Z,2.30
2022-08-09T11:14:57.343Z,2.37
2022-08-09T11:20:10.126Z,2.70
2022-08-09T11:25:15.551Z,2.63
2022-08-09T11:30:32.323Z,2.40
2022-08-09T11:35:49.823Z,2.30
2022-08-09T11:40:54.826Z,2.78
2022-08-09T11:46:06.095Z,2.50
2022-08-09T11:51:37.966Z,2.55
2022-08-09T11:56:42.567Z,2.40
2022-08-09T12:02:34.529Z,2.13
2022-08-09T12:07:10.828Z,2.53
2022-08-09T12:12:28.579Z,2.30
2022-08-09T12:17:42.349Z,2.10
2022-08-09T12:22:46.457Z,2.40
2022-08-09T12:29:09.808Z,2.45
2022-08-09T12:33:51.466Z,2.40
2022-08-09T12:38:53.237Z,2.60
2022-08-09T12:44:06.883Z,2.35
2022-08-09T12:49:09.202Z,2.40
2022-08-09T12:54:10.473Z,2.80
2022-08-09T12:59:13.970Z,2.60
2022-08-09T13:04:33.262Z,2.30
2022-08-09T13:09:40.998Z,2.50
2022-08-09T13:14:51.539Z,2.03
2022-08-09T13:20:07.541Z,2.30
2022-08-09T13:25:14.269Z,2.00
2022-08-09T13:30:48.997Z,2.23
2022-08-09T13:36:38.549Z,1.92
2022-08-09T13:41:52.561Z,2.45
2022-08-09T13:47:17.987Z,2.00
2022-08-09T13:51:43.213Z,2.07
2022-08-09T13:57:02.492Z,2.20
2022-08-09T14:02:07.933Z,2.00
2022-08-09T14:07:11.228Z,1.90
2022-08-09T14:12:15.833Z,1.90
2022-08-09T14:17:17.340Z,2.00
2022-08-09T14:22:24.219Z,2.23
2022-08-09T14:27:26.757Z,2.10
2022-08-09T14:32:28.645Z,2.00
2022-08-09T14:37:41.235Z,1.73
2022-08-09T14:42:53.797Z,2.10
2022-08-09T14:47:58.513Z,2.00
2022-08-09T14:53:01.610Z,2.00
2022-08-09T14:58:03.798Z,1.80
2022-08-09T15:03:06.932Z,2.10
2022-08-09T15:08:10.381Z,2.00
2022-08-09T15:13:13.170Z,1.83
2022-08-09T15:18:15.278Z,2.10
2022-08-09T15:24:10.235Z,1.88
2022-08-09T15:28:42.113Z,2.10
2022-08-09T15:34:17.227Z,2.00
2022-08-09T15:39:04.850Z,1.67
2022-08-09T15:44:07.456Z,2.15
2022-08-09T15:49:22.375Z,2.00
2022-08-09T15:54:38.197Z,1.80
2022-08-09T15:59:51.555Z,2.00
2022-08-09T16:04:53.266Z,2.00
2022-08-09T16:10:02.204Z,1.98
2022-08-09T16:16:10.119Z,2.70
2022-08-09T16:20:30.754Z,2.20
2022-08-09T16:25:40.285Z,2.27
2022-08-09T16:30:44.664Z,2.00
2022-08-09T16:35:55.961Z,2.30
2022-08-09T16:41:03.814Z,1.97
2022-08-09T16:46:06.121Z,2.10
2022-08-09T16:51:14.397Z,2.08
2022-08-09T16:56:16.620Z,2.30
2022-08-09T17:01:19.513Z,2.00
2022-08-09T17:06:31.155Z,2.03
2022-08-09T17:11:40.976Z,1.90
2022-08-09T17:16:43.598Z,1.93
2022-08-09T17:21:46.726Z,2.58
2022-08-09T17:26:52.037Z,2.20
2022-08-09T17:31:55.042Z,2.17
2022-08-09T17:36:56.346Z,2.38
2022-08-09T17:42:01.918Z,2.20
2022-08-09T17:47:04.093Z,2.57
2022-08-09T17:52:05.517Z,1.90
2022-08-09T17:57:06.916Z,2.17
2022-08-09T18:02:12.877Z,2.27
2022-08-09T18:07:23.582Z,2.27
2022-08-09T18:12:30.791Z,2.33
2022-08-09T18:18:02.806Z,2.15
2022-08-09T18:23:04.935Z,1.83
2022-08-09T18:28:19.034Z,2.10
2022-08-09T18:33:28.874Z,2.15
2022-08-09T18:38:30.234Z,2.03
2022-08-09T18:43:35.089Z,2.10
2022-08-09T18:48:36.690Z,2.20
2022-08-09T18:54:01.003Z,2.00
2022-08-09T18:59:01.180Z,2.37
2022-08-09T19:04:08.442Z,2.22
2022-08-09T19:09:13.501Z,2.30
2022-08-09T19:14:29.109Z,2.13
2022-08-09T19:19:41.872Z,2.30
2022-08-09T19:25:11.876Z,2.60
2022-08-09T19:30:22.173Z,2.20
2022-08-09T19:35:27.028Z,2.40
2022-08-09T19:40:33.433Z,2.35
2022-08-09T19:45:39.129Z,2.60
2022-08-09T19:50:48.911Z,2.70
2022-08-09T19:56:03.186Z,2.97
2022-08-09T20:01:13.389Z,2.65
2022-08-09T20:06:23.270Z,2.70
2022-08-09T20:11:26.978Z,2.35
2022-08-09T20:16:37.479Z,2.13
2022-08-09T20:21:56.415Z,2.00
2022-08-09T20:26:59.204Z,2.28
2022-08-09T20:32:32.872Z,2.38
2022-08-09T20:37:22.721Z,2.40
2022-08-09T20:42:24.804Z,2.50
2022-08-09T20:47:48.208Z,2.95
2022-08-09T20:52:47.502Z,2.47
2022-08-09T20:58:05.201Z,2.90
2022-08-09T21:03:09.925Z,2.95
2022-08-09T21:08:11.295Z,2.47
2022-08-09T21:13:15.544Z,2.60
2022-08-09T21:18:24.831Z,2.40
2022-08-09T21:23:48.037Z,2.40
2022-08-09T21:28:55.828Z,2.50
2022-08-09T21:33:58.345Z,2.53
2022-08-09T21:38:59.990Z,2.15
2022-08-09T21:44:01.408Z,2.30
2022-08-09T21:49:02.754Z,2.27
2022-08-09T21:54:04.513Z,2.40
2022-08-09T21:59:05.799Z,2.63
2022-08-09T22:04:07.152Z,2.50
2022-08-09T22:09:11.073Z,2.35
2022-08-09T22:14:13.229Z,2.40
2022-08-09T22:19:57.735Z,2.27
2022-08-09T22:24:37.659Z,2.47
2022-08-09T22:29:55.120Z,2.30
2022-08-09T22:35:02.348Z,2.67
2022-08-09T22:40:08.780Z,2.20
2022-08-09T22:48:12.246Z,2.72
2022-08-09T22:50:32.421Z,2.53
2022-08-09T22:56:05.824Z,2.23
2022-08-09T23:00:55.220Z,2.47
2022-08-09T23:05:56.504Z,2.50
2022-08-09T23:10:57.771Z,2.40
2022-08-09T23:16:02.968Z,2.73
2022-08-09T23:21:05.120Z,2.70
2022-08-09T23:26:06.483Z,2.72
2022-08-09T23:31:07.764Z,2.20
2022-08-09T23:36:09.074Z,2.40
2022-08-09T23:41:10.359Z,2.45
2022-08-09T23:46:29.892Z,2.57
2022-08-09T23:51:31.182Z,2.28
2022-08-09T23:56:52.665Z,2.60
